• Join FlightAware (Why Join?)
  • Login
  • US Flag 
03:56AM EDT


 

Airport Tracker/Info


-or-


 

Live Flight TrackerFlight Track Log ✈ PDT4306 ✈ 08-May-2012 ✈ KERI - KPHL

Flight Track Log - Related Links

Times and Time Zones

All times are in EDT time to prevent confusion due to time zone crossing. See the PDT4306 flight status page for this flight to view local times or setup timezone preferences in your user account.

Time Position Orientation Groundspeed Altitude Reporting Facility
EDT Latitude Longitude Course Direction KTS MPH feet Rate Location/Type
05:33AM 41.9141 -79.8615 295° West  Level FlightAware Approximate
05:37AM 42.0322 -80.2058 121° Southeast 126 145 4,300  Level Cleveland Center
05:38AM 42.0050 -80.1444 118° Southeast 145 167 5,800 1,320 Climbing Cleveland Center
05:39AM 41.9819 -80.0861 118° Southeast 167 192 7,000 1,080 Climbing Cleveland Center
05:40AM 41.9586 -80.0275 121° Southeast 179 206 8,000 1,020 Climbing Cleveland Center
05:41AM 41.9311 -79.9664 122° Southeast 194 223 9,100 900 Climbing Cleveland Center
05:42AM 41.8997 -79.8997 118° Southeast 200 230 9,900 960 Climbing Cleveland Center
05:43AM 41.8719 -79.8303 117° Southeast 206 237 11,100 1,080 Climbing Cleveland Center
05:44AM 41.8467 -79.7636 118° Southeast 206 237 12,100 900 Climbing Cleveland Center
05:45AM 41.8169 -79.6889 115° Southeast 206 237 12,900 720 Climbing Cleveland Center
05:46AM 41.7911 -79.6139 119° Southeast 218 251 13,600 780 Climbing Cleveland Center
05:47AM 41.7614 -79.5419 117° Southeast 218 251 14,500 840 Climbing Cleveland Center
05:48AM 41.7336 -79.4703 119° Southeast 218 251 15,300 720 Climbing Cleveland Center
05:49AM 41.7036 -79.3983 123° Southeast 218 251 16,000 780 Climbing Cleveland Center
05:50AM 41.6653 -79.3183 120° Southeast 226 260 16,900 480 Climbing Cleveland Center
05:51AM 41.6311 -79.2386 121° Southeast 226 260 17,000  Climbing Cleveland Center
05:52AM 41.5947 -79.1589 119° Southeast 233 268 17,000  Level Cleveland Center
05:53AM 41.5603 -79.0764 118° Southeast 246 283 17,000  Level Cleveland Center
05:54AM 41.5258 -78.9883 118° Southeast 251 289 17,000  Level Cleveland Center
05:55AM 41.4933 -78.9061 119° Southeast 256 295 17,000  Level Cleveland Center
05:56AM 41.4567 -78.8183 119° Southeast 261 300 17,000  Level Cleveland Center
05:57AM 41.4153 -78.7197 120° Southeast 261 300 17,000  Level Cleveland Center
05:58AM 41.3786 -78.6350 121° Southeast 261 300 17,000  Level Cleveland Center
06:00AM 41.3122 -78.4892 123° Southeast 263 303 17,000 -60 Level New York Center
06:01AM 41.2717 -78.4069 121° Southeast 258 297 16,900 -60 Descending New York Center
06:02AM 41.2353 -78.3256 117° Southeast 258 297 16,900  Level New York Center
06:03AM 41.2031 -78.2419 120° Southeast 258 297 16,900  Level New York Center
06:04AM 41.1683 -78.1611 119° Southeast 258 297 16,900  Level New York Center
06:05AM 41.1339 -78.0800 116° Southeast 258 297 16,900  Level New York Center
06:06AM 41.1017 -77.9939 119° Southeast 258 297 17,000  Climbing New York Center
06:07AM 41.0689 -77.9161 118° Southeast 258 297 17,000 -540 Level New York Center
06:08AM 41.0344 -77.8300 116° Southeast 258 297 16,000 -1,080 Descending New York Center
06:09AM 41.0003 -77.7358 118° Southeast 268 308 14,900 -1,140 Descending New York Center
06:10AM 40.9639 -77.6439 117° Southeast 274 315 13,800 -1,140 Descending New York Center
06:11AM 40.9261 -77.5439 116° Southeast 284 327 12,700 -900 Descending New York Center
06:12AM 40.8917 -77.4500 117° Southeast 284 327 12,000 -360 Descending New York Center
06:13AM 40.8572 -77.3614 118° Southeast 279 321 12,000  Level New York Center
06:14AM 40.8258 -77.2844 121° Southeast 257 296 12,000  Level New York Center
06:15AM 40.7925 -77.2100 117° Southeast 245 282 12,000  Level New York Center
06:16AM 40.7614 -77.1303 118° Southeast 245 282 12,000 -120 Level New York Center
06:17AM 40.7300 -77.0533 116° Southeast 240 276 11,800 -540 Descending New York Center
06:18AM 40.6992 -76.9683 115° Southeast 235 270 11,000 -420 Descending New York Center
06:19AM 40.6717 -76.8922 118° Southeast 230 265 11,000  Level New York Center
06:20AM 40.6422 -76.8183 121° Southeast 230 265 11,000  Level New York Center
06:21AM 40.6178 -76.7642 120° Southeast 230 265 11,000  Level New York Center
06:22AM 40.5731 -76.6619 117° Southeast 240 276 11,000  Level New York Center
06:23AM 40.5417 -76.5800 124° Southeast 248 285 11,000  Level New York Center
06:24AM 40.5036 -76.5058 122° Southeast 257 296 11,000  Level New York Center
06:25AM 40.4694 -76.4347 125° Southeast 252 290 11,000  Level New York Center
06:26AM 40.4369 -76.3747 125° Southeast 252 290 11,000  Level New York Center
06:27AM 40.3708 -76.2506 127° Southeast 250 288 11,100 -120 Climbing FAA TRACON SMA TRACON (SMA)
06:28AM 40.3431 -76.2031 127° Southeast 250 288 10,800 -780 Descending FAA TRACON SMA TRACON (SMA)
06:29AM 40.3133 -76.1511 127° Southeast 257 296 10,100 -1,080 Descending FAA TRACON SMA TRACON (SMA)
06:29AM 40.2861 -76.1031 134° Southeast 267 307 9,400 -780 Descending FAA TRACON SMA TRACON (SMA)
06:30AM 40.2511 -76.0556 136° Southeast 256 295 9,100 -240 Descending FAA TRACON SMA TRACON (SMA)
06:31AM 40.2189 -76.0147 140° Southeast 244 281 9,100 -600 Level FAA TRACON SMA TRACON (SMA)
06:31AM 40.1861 -75.9789 137° Southeast 240 276 8,300 -1,380 Descending FAA TRACON SMA TRACON (SMA)
06:32AM 40.1514 -75.9367 133° Southeast 245 282 7,300 -840 Descending FAA TRACON SMA TRACON (SMA)
06:33AM 40.0914 -75.8531 132° Southeast 242 278 6,700 -600 Descending FAA TRACON SMA TRACON (SMA)
06:34AM 40.0594 -75.8072 132° Southeast 244 281 6,100 -480 Descending FAA TRACON SMA TRACON (SMA)
06:35AM 40.0289 -75.7628 131° Southeast 237 273 6,100 -180 Level FAA TRACON SMA TRACON (SMA)
06:35AM 40.0039 -75.7247 132° Southeast 226 260 5,900 -660 Descending FAA TRACON SMA TRACON (SMA)
06:37AM 39.9325 -75.6222 129° Southeast 220 253 4,600 -660 Descending New York Center
06:39AM 39.8586 -75.5022 111° Southeast 198 228 3,600 -660 Descending FAA TRACON SMA TRACON (SMA)
06:40AM 39.8461 -75.4597 102° East 200 230 3,000 -1,080 Descending FAA TRACON SMA TRACON (SMA)
06:40AM 39.8389 -75.4169 84° East 199 229 2,300 -1,080 Descending FAA TRACON SMA TRACON (SMA)
06:41AM 39.8425 -75.3686 76° East 196 226 1,600 -1,080 Descending FAA TRACON SMA TRACON (SMA)
06:42AM 39.8506 -75.3269 76° East 164 189 900 -900 Descending FAA TRACON SMA TRACON (SMA)
06:42AM 39.8567 -75.2958 76° East 141 162 400 -540 Descending FAA TRACON SMA TRACON (SMA)
06:43AM 39.8594 -75.2817 76° East 133 153 200 -300 Descending FAA TRACON SMA TRACON (SMA)